Time;durP1;ratioP1;P1;durP2;ratioP2;P2;SDS_P1;SDS_P2;PMS_P1;PMS_P2;Temp;Humidity;BMP_temperature;BMP_pressure;BME280_temperature;BME280_humidity;BME280_pressure;Samples;Min_cycle;Max_cycle;Signal;HPM_P1;HPM_P2
2022/07/08 00:01:00;;;;;;;;;;;;;;;17.19;48.40;100606.44;4958222;29;1113;-59
2022/07/08 00:03:25;;;;;;;;;;;;;;;17.21;48.29;100593.25;4958129;29;876;-58
2022/07/08 00:05:51;;;;;;;;;;;;;;;17.27;47.68;100603.09;4957960;29;959;-60
2022/07/08 00:08:18;;;;;;;;;;;;;;;17.37;52.10;100607.72;4958548;29;971;-59
2022/07/08 00:10:43;;;;;;;;;;;;;;;16.16;57.80;100606.63;4962723;28;975;-59
2022/07/08 00:13:09;;;;;;;;;;;;;;;18.79;54.11;100604.09;4958238;29;1372;-59
2022/07/08 00:15:34;;;;;;;;;;;;;;;15.54;61.10;100601.91;4960761;28;1902;-59
2022/07/08 00:18:00;;;;;;;;;;;;;;;16.67;55.44;100592.84;4958219;29;1030;-59
2022/07/08 00:20:25;;;;;;;;;;;;;;;17.06;51.73;100589.44;4957935;29;1112;-59
2022/07/08 00:22:51;;;;;;;;;;;;;;;17.18;50.37;100582.78;4957947;29;1003;-59
2022/07/08 00:25:16;;;;;;;;;;;;;;;17.14;49.67;100581.72;4958256;28;1221;-59
2022/07/08 00:27:42;;;;;;;;;;;;;;;17.20;49.22;100586.09;4963489;28;858;-60
2022/07/08 00:30:08;;;;;;;;;;;;;;;17.76;50.09;100588.50;4957970;29;967;-59
2022/07/08 00:32:35;;;;;;;;;;;;;;;17.65;50.60;100586.13;4958001;29;995;-59
2022/07/08 00:35:00;;;;;;;;;;;;;;;17.48;49.54;100581.00;4957746;29;1977;-59
2022/07/08 00:37:25;;;;;;;;;;;;;;;17.37;48.90;100586.53;4957757;29;1026;-59
2022/07/08 00:39:51;;;;;;;;;;;;;;;17.37;48.28;100592.03;4957627;29;1007;-59
2022/07/08 00:42:16;;;;;;;;;;;;;;;17.35;47.97;100591.50;4958853;28;1140;-59
2022/07/08 00:44:42;;;;;;;;;;;;;;;17.30;47.86;100599.78;4961867;29;1014;-59
2022/07/08 00:47:07;;;;;;;;;;;;;;;17.23;47.61;100596.53;4961817;29;1168;-59
2022/07/08 00:49:33;;;;;;;;;;;;;;;17.24;47.42;100600.91;4961711;29;1217;-59
2022/07/08 00:51:58;;;;;;;;;;;;;;;17.22;46.99;100594.88;4961281;29;947;-58
2022/07/08 00:54:24;;;;;;;;;;;;;;;17.26;47.02;100590.44;4961820;29;1010;-59
2022/07/08 00:56:49;;;;;;;;;;;;;;;17.16;46.82;100585.00;4961619;29;1989;-59
2022/07/08 00:59:15;;;;;;;;;;;;;;;17.23;46.89;100585.53;4961424;29;1161;-59
2022/07/08 01:01:40;;;;;;;;;;;;;;;18.30;48.40;100581.19;4961492;28;959;-59
2022/07/08 01:04:06;;;;;;;;;;;;;;;14.62;58.25;100590.53;4961268;28;1007;-59
2022/07/08 01:06:31;;;;;;;;;;;;;;;18.23;52.64;100590.91;4967441;28;948;-59
2022/07/08 01:08:56;;;;;;;;;;;;;;;17.29;55.36;100578.88;4961549;29;1018;-58
2022/07/08 01:11:22;;;;;;;;;;;;;;;15.95;58.56;100581.97;4961238;29;987;-58
2022/07/08 01:13:48;;;;;;;;;;;;;;;18.81;53.85;100579.81;4961036;29;1073;-58
2022/07/08 01:16:14;;;;;;;;;;;;;;;15.25;61.41;100585.13;4960722;29;1931;-58
2022/07/08 01:18:39;;;;;;;;;;;;;;;16.61;54.62;100574.75;4961360;29;1010;-58
2022/07/08 01:21:05;;;;;;;;;;;;;;;17.09;51.57;100575.13;4960816;29;991;-59
2022/07/08 01:23:30;;;;;;;;;;;;;;;17.20;50.14;100577.84;4961484;29;1220;-59
2022/07/08 01:25:56;;;;;;;;;;;;;;;17.06;49.73;100572.16;4960970;29;994;-59
2022/07/08 01:28:21;;;;;;;;;;;;;;;17.20;48.63;100578.66;4962604;28;1011;-59
2022/07/08 01:30:46;;;;;;;;;;;;;;;17.81;50.55;100578.56;4964848;28;963;-60
2022/07/08 01:33:12;;;;;;;;;;;;;;;17.43;49.96;100573.59;4961087;29;1015;-59
2022/07/08 01:35:37;;;;;;;;;;;;;;;17.41;48.94;100582.13;4956499;29;1963;-60
2022/07/08 01:38:03;;;;;;;;;;;;;;;17.34;48.67;100575.31;4961010;29;1038;-59
2022/07/08 01:40:28;;;;;;;;;;;;;;;17.26;48.24;100579.47;4960431;29;1177;-59
2022/07/08 01:42:54;;;;;;;;;;;;;;;17.31;47.78;100578.63;4960789;29;1059;-59
2022/07/08 01:45:19;;;;;;;;;;;;;;;17.22;47.35;100576.47;4945420;29;1136;-60
2022/07/08 01:47:44;;;;;;;;;;;;;;;18.14;48.80;100576.94;4943696;29;1097;-59
2022/07/08 01:50:10;;;;;;;;;;;;;;;17.67;48.87;100573.72;4960509;29;1196;-59
2022/07/08 01:52:36;;;;;;;;;;;;;;;17.44;48.43;100576.06;4960533;28;1010;-58
2022/07/08 01:55:02;;;;;;;;;;;;;;;17.40;47.99;100569.50;4960538;29;1902;-58
2022/07/08 01:57:27;;;;;;;;;;;;;;;17.34;47.47;100567.88;4960448;29;1089;-58
2022/07/08 01:59:52;;;;;;;;;;;;;;;17.26;47.42;100574.81;4960261;28;1169;-58
2022/07/08 02:02:19;;;;;;;;;;;;;;;17.27;46.95;100570.13;4960715;29;1007;-57
2022/07/08 02:04:45;;;;;;;;;;;;;;;17.36;47.39;100579.41;4959712;29;983;-58
2022/07/08 02:07:10;;;;;;;;;;;;;;;16.53;52.11;100575.31;4960405;28;1007;-58
2022/07/08 02:09:35;;;;;;;;;;;;;;;16.61;54.60;100580.25;4960469;29;995;-58
2022/07/08 02:12:19;;;;;;;;;;;;;;;19.00;51.60;100576.34;4960208;29;1160;-58
2022/07/08 02:14:48;;;;;;;;;;;;;;;14.80;60.50;100581.06;4960711;29;1129;-60
2022/07/08 02:17:14;;;;;;;;;;;;;;;18.58;54.14;100580.63;4961339;28;932;-60
2022/07/08 02:19:40;;;;;;;;;;;;;;;17.19;57.25;100582.50;4955727;28;1307;-60
2022/07/08 02:22:06;;;;;;;;;;;;;;;16.64;60.18;100574.19;4960408;28;1140;-60
2022/07/08 02:24:32;;;;;;;;;;;;;;;19.35;54.13;100592.69;4960287;29;1008;-60
2022/07/08 02:26:57;;;;;;;;;;;;;;;15.37;61.50;100596.63;4953166;28;1020;-58
2022/07/08 02:29:22;;;;;;;;;;;;;;;17.99;58.04;100590.84;4965935;28;996;-58
2022/07/08 02:31:48;;;;;;;;;;;;;;;18.08;56.79;100583.63;4959984;29;947;-58
2022/07/08 02:34:13;;;;;;;;;;;;;;;15.79;60.49;100588.50;4959865;29;1070;-58
2022/07/08 02:36:39;;;;;;;;;;;;;;;17.09;53.46;100583.38;4959870;29;1910;-58
2022/07/08 02:39:04;;;;;;;;;;;;;;;17.22;51.50;100587.47;4959823;29;1014;-57
2022/07/08 02:41:30;;;;;;;;;;;;;;;17.33;50.27;100590.97;4959349;29;877;-59
2022/07/08 02:43:56;;;;;;;;;;;;;;;17.26;49.52;100585.78;4959710;29;1118;-60
2022/07/08 02:46:21;;;;;;;;;;;;;;;17.26;49.06;100596.78;4959791;29;1034;-59
2022/07/08 02:48:47;;;;;;;;;;;;;;;17.24;48.62;100593.47;4961364;28;1244;-58
2022/07/08 02:51:12;;;;;;;;;;;;;;;17.27;48.22;100592.91;4964100;28;955;-59
2022/07/08 02:53:37;;;;;;;;;;;;;;;17.21;47.99;100587.75;4958978;29;959;-59
2022/07/08 02:56:03;;;;;;;;;;;;;;;18.27;50.13;100591.97;4960355;28;1977;-58
2022/07/08 02:58:28;;;;;;;;;;;;;;;14.79;59.10;100590.38;4959029;29;1050;-58
2022/07/08 03:00:54;;;;;;;;;;;;;;;18.10;54.78;100601.47;4959491;29;924;-58
2022/07/08 03:03:19;;;;;;;;;;;;;;;17.77;56.47;100595.66;4959525;29;979;-58
2022/07/08 03:05:45;;;;;;;;;;;;;;;15.78;59.76;100601.41;4958199;28;900;-59
2022/07/08 03:08:10;;;;;;;;;;;;;;;16.99;53.12;100613.66;4959609;29;1038;-58
2022/07/08 03:10:35;;;;;;;;;;;;;;;17.18;50.94;100599.28;4962463;28;1116;-55
2022/07/08 03:13:01;;;;;;;;;;;;;;;17.14;49.99;100601.78;4959647;28;971;-57
2022/07/08 03:15:26;;;;;;;;;;;;;;;17.22;48.98;100603.94;4959186;29;1991;-58
2022/07/08 03:17:52;;;;;;;;;;;;;;;17.16;48.83;100596.00;4958286;29;877;-58
2022/07/08 03:20:18;;;;;;;;;;;;;;;17.10;48.35;100615.25;4961389;28;999;-58
2022/07/08 03:22:43;;;;;;;;;;;;;;;18.07;50.66;100624.06;4959109;29;1054;-57
2022/07/08 03:25:09;;;;;;;;;;;;;;;17.64;50.33;100617.47;4958653;29;1137;-57
2022/07/08 03:27:34;;;;;;;;;;;;;;;17.44;49.17;100613.72;4958969;29;1153;-57
2022/07/08 03:30:00;;;;;;;;;;;;;;;17.34;48.75;100619.28;4958656;29;901;-57
2022/07/08 03:32:26;;;;;;;;;;;;;;;17.33;48.34;100621.19;4958743;29;1003;-56
2022/07/08 03:34:51;;;;;;;;;;;;;;;17.31;47.75;100628.09;4958715;29;1902;-57
2022/07/08 03:37:16;;;;;;;;;;;;;;;17.33;47.40;100617.63;4958805;29;1120;-57
2022/07/08 03:39:42;;;;;;;;;;;;;;;17.26;47.18;100617.94;4954896;28;1456;-57
2022/07/08 03:42:08;;;;;;;;;;;;;;;17.23;47.08;100618.50;4961294;28;916;-58
2022/07/08 03:44:33;;;;;;;;;;;;;;;18.16;48.29;100623.44;4958752;29;1185;-57
2022/07/08 03:46:59;;;;;;;;;;;;;;;14.75;58.04;100630.34;4958474;29;967;-57
2022/07/08 03:49:24;;;;;;;;;;;;;;;18.45;53.07;100637.22;4963294;28;1289;-56
2022/07/08 03:51:50;;;;;;;;;;;;;;;17.27;56.92;100636.88;4965483;28;1216;-56
2022/07/08 03:54:15;;;;;;;;;;;;;;;16.17;59.23;100647.53;4958305;28;990;-59
2022/07/08 03:56:41;;;;;;;;;;;;;;;17.35;53.96;100641.00;4957433;29;1903;-59
2022/07/08 03:59:06;;;;;;;;;;;;;;;17.47;52.66;100648.06;4958062;29;995;-59
2022/07/08 04:01:32;;;;;;;;;;;;;;;17.48;51.56;100636.78;4958449;28;1148;-59
2022/07/08 04:03:57;;;;;;;;;;;;;;;17.57;51.34;100637.84;4957880;28;1084;-58
2022/07/08 04:06:23;;;;;;;;;;;;;;;14.48;59.65;100639.41;4958138;28;1010;-64
2022/07/08 04:08:48;;;;;;;;;;;;;;;17.68;56.50;100646.84;4958189;29;971;-62
2022/07/08 04:11:13;;;;;;;;;;;;;;;17.54;54.34;100641.16;4958182;28;1082;-66
2022/07/08 04:13:39;;;;;;;;;;;;;;;17.54;53.00;100634.84;4957994;28;1062;-64
2022/07/08 04:16:06;;;;;;;;;;;;;;;17.61;51.58;100649.09;4958476;28;1906;-67
2022/07/08 04:18:31;;;;;;;;;;;;;;;17.57;50.59;100648.00;4958963;28;1276;-70
2022/07/08 04:20:57;;;;;;;;;;;;;;;17.52;49.99;100643.38;4958286;29;848;-62
2022/07/08 04:23:22;;;;;;;;;;;;;;;17.61;49.52;100643.59;4957931;28;963;-60
2022/07/08 04:25:48;;;;;;;;;;;;;;;17.49;49.32;100651.34;4957981;28;1026;-60
2022/07/08 04:28:13;;;;;;;;;;;;;;;17.49;48.98;100651.34;4958782;28;975;-61
2022/07/08 04:30:39;;;;;;;;;;;;;;;17.49;48.95;100657.69;4961357;28;991;-64
2022/07/08 04:33:05;;;;;;;;;;;;;;;17.77;50.00;100650.66;4954748;28;2539;-65
2022/07/08 04:35:31;;;;;;;;;;;;;;;15.69;59.04;100658.66;4958203;28;1979;-64
2022/07/08 04:37:56;;;;;;;;;;;;;;;17.71;58.06;100665.53;4958103;28;1093;-64
2022/07/08 04:40:22;;;;;;;;;;;;;;;19.41;56.70;100654.94;4957722;28;1165;-65
2022/07/08 04:42:47;;;;;;;;;;;;;;;15.16;63.57;100655.19;4957608;28;1555;-60
2022/07/08 04:45:13;;;;;;;;;;;;;;;16.92;56.20;100651.59;4957511;28;904;-60
2022/07/08 04:47:38;;;;;;;;;;;;;;;17.36;52.61;100647.28;4958312;28;990;-61
2022/07/08 04:50:04;;;;;;;;;;;;;;;17.35;51.03;100646.47;4953625;29;1223;-60
2022/07/08 04:52:29;;;;;;;;;;;;;;;17.38;49.93;100643.16;4956808;29;1230;-57
2022/07/08 04:54:55;;;;;;;;;;;;;;;17.31;49.48;100642.66;4963307;28;1965;-60
2022/07/08 04:57:20;;;;;;;;;;;;;;;17.40;49.17;100629.97;4958065;28;1066;-61
2022/07/08 04:59:45;;;;;;;;;;;;;;;17.39;49.26;100650.31;4953753;28;1177;-65
2022/07/08 05:02:11;;;;;;;;;;;;;;;17.40;48.54;100651.97;4957534;29;2367;-61
2022/07/08 05:04:36;;;;;;;;;;;;;;;17.30;48.20;100652.00;4957241;28;1090;-60
2022/07/08 05:07:02;;;;;;;;;;;;;;;17.32;47.77;100638.81;4957353;28;880;-60
2022/07/08 05:09:27;;;;;;;;;;;;;;;17.28;47.83;100654.22;4957570;28;1078;-58
2022/07/08 05:11:53;;;;;;;;;;;;;;;17.24;47.31;100653.13;4957762;28;1034;-61
2022/07/08 05:14:18;;;;;;;;;;;;;;;17.24;47.39;100664.94;4957899;29;987;-59
2022/07/08 05:16:44;;;;;;;;;;;;;;;17.21;47.38;100671.00;4957365;28;1981;-62
2022/07/08 05:19:09;;;;;;;;;;;;;;;17.84;48.66;100666.00;4957580;28;1380;-61
2022/07/08 05:21:36;;;;;;;;;;;;;;;15.15;55.92;100675.44;4954160;28;1436;-60
2022/07/08 05:24:03;;;;;;;;;;;;;;;17.72;54.67;100655.34;4957744;29;1144;-63
2022/07/08 05:26:28;;;;;;;;;;;;;;;18.67;53.50;100667.03;4959327;28;1038;-60
2022/07/08 05:28:54;;;;;;;;;;;;;;;15.13;61.21;100667.50;4957612;28;1229;-60
2022/07/08 05:31:19;;;;;;;;;;;;;;;18.46;55.75;100669.16;4960958;28;2668;-62
2022/07/08 05:33:45;;;;;;;;;;;;;;;16.12;60.34;100666.72;4964330;28;1022;-63
2022/07/08 05:36:10;;;;;;;;;;;;;;;16.28;57.11;100655.75;4960571;28;1976;-61
2022/07/08 05:38:35;;;;;;;;;;;;;;;17.04;52.51;100665.84;4961164;28;1015;-61
2022/07/08 05:41:01;;;;;;;;;;;;;;;17.14;51.11;100658.66;4960936;28;1030;-61
2022/07/08 05:43:27;;;;;;;;;;;;;;;17.20;50.00;100660.28;4960264;28;872;-61
2022/07/08 05:45:52;;;;;;;;;;;;;;;17.19;49.25;100659.44;4960798;29;1018;-58
2022/07/08 05:48:18;;;;;;;;;;;;;;;17.19;48.60;100667.69;4959546;28;1287;-62
2022/07/08 05:50:43;;;;;;;;;;;;;;;17.07;48.68;100646.03;4965276;28;1351;-61
2022/07/08 05:53:09;;;;;;;;;;;;;;;17.95;48.24;100656.63;4960662;28;1204;-61
2022/07/08 05:55:34;;;;;;;;;;;;;;;18.21;48.25;100664.69;4965399;28;1971;-60
2022/07/08 05:57:59;;;;;;;;;;;;;;;17.84;49.52;100660.50;4960590;28;1007;-61
2022/07/08 06:00:25;;;;;;;;;;;;;;;17.74;50.37;100656.72;4959571;28;1002;-56
2022/07/08 06:02:51;;;;;;;;;;;;;;;17.66;51.24;100653.75;4963554;28;1062;-57
2022/07/08 06:05:16;;;;;;;;;;;;;;;17.55;51.60;100653.78;4962859;28;1023;-58
2022/07/08 06:07:42;;;;;;;;;;;;;;;17.55;51.99;100662.03;4962532;28;970;-58
2022/07/08 06:10:07;;;;;;;;;;;;;;;17.48;52.51;100675.28;4961821;28;1011;-57
2022/07/08 06:12:33;;;;;;;;;;;;;;;17.43;52.94;100675.28;4960683;29;1126;-58
2022/07/08 06:14:58;;;;;;;;;;;;;;;17.40;53.23;100673.13;4956380;28;1894;-57
2022/07/08 06:17:24;;;;;;;;;;;;;;;17.31;53.40;100670.13;4965592;28;1009;-52
2022/07/08 06:19:49;;;;;;;;;;;;;;;17.33;53.55;100681.66;4964817;28;1078;-53
2022/07/08 06:22:14;;;;;;;;;;;;;;;17.30;53.66;100678.66;4959962;28;1268;-49
2022/07/08 06:24:40;;;;;;;;;;;;;;;17.24;54.25;100670.44;4960193;28;1357;-53
2022/07/08 06:27:05;;;;;;;;;;;;;;;17.22;54.15;100677.31;4959838;29;1141;-52
2022/07/08 06:29:31;;;;;;;;;;;;;;;17.18;54.52;100681.72;4959115;28;1200;-55
2022/07/08 06:31:56;;;;;;;;;;;;;;;17.13;54.83;100679.00;4958311;28;1528;-57
2022/07/08 06:34:22;;;;;;;;;;;;;;;17.12;54.67;100667.16;4964091;28;1201;-57
2022/07/08 06:36:49;;;;;;;;;;;;;;;17.09;55.18;100676.78;4962075;28;1914;-57
2022/07/08 06:39:14;;;;;;;;;;;;;;;17.07;55.14;100681.75;4960213;28;1240;-60
2022/07/08 06:41:39;;;;;;;;;;;;;;;17.03;55.53;100677.91;4963307;28;920;-59
2022/07/08 06:44:05;;;;;;;;;;;;;;;16.99;55.49;100690.56;4959781;28;1182;-56
2022/07/08 06:46:30;;;;;;;;;;;;;;;16.99;55.63;100690.56;4956979;28;1317;-59
2022/07/08 06:48:56;;;;;;;;;;;;;;;16.95;55.74;100683.97;4955635;29;1153;-58
2022/07/08 06:51:21;;;;;;;;;;;;;;;16.95;55.88;100683.97;4958697;28;1432;-57
2022/07/08 06:56:31;;;;;;;;;;;;;;;16.99;55.75;100681.50;4953384;28;1906;-61
2022/07/08 06:58:56;;;;;;;;;;;;;;;16.91;55.97;100671.91;4959478;29;1026;-60
2022/07/08 07:01:21;;;;;;;;;;;;;;;16.92;55.79;100668.06;4959319;28;983;-59
2022/07/08 07:03:47;;;;;;;;;;;;;;;16.90;55.86;100671.09;4964378;28;1118;-61
2022/07/08 07:06:13;;;;;;;;;;;;;;;16.84;56.16;100668.59;4941569;29;1377;-59
2022/07/08 07:08:38;;;;;;;;;;;;;;;16.84;56.23;100665.84;4956428;28;1559;-60
2022/07/08 07:11:04;;;;;;;;;;;;;;;16.84;55.98;100665.84;4957434;29;1528;-61
2022/07/08 07:13:29;;;;;;;;;;;;;;;16.81;56.40;100667.22;4956713;28;1433;-61
2022/07/08 07:15:55;;;;;;;;;;;;;;;16.82;56.29;100671.63;4957673;28;1902;-62
2022/07/08 07:18:20;;;;;;;;;;;;;;;16.76;56.29;100686.47;4955461;28;1449;-61
2022/07/08 07:20:46;;;;;;;;;;;;;;;16.73;56.66;100674.13;4959566;28;1102;-58
2022/07/08 07:23:11;;;;;;;;;;;;;;;16.72;56.57;100666.97;4953480;28;1568;-58
2022/07/08 07:25:37;;;;;;;;;;;;;;;16.73;56.38;100676.88;4959114;29;947;-57
2022/07/08 07:28:02;;;;;;;;;;;;;;;16.71;56.41;100667.25;4958499;29;1010;-57
2022/07/08 07:30:28;;;;;;;;;;;;;;;16.73;56.39;100668.63;4958099;28;1338;-58
2022/07/08 07:32:53;;;;;;;;;;;;;;;16.71;56.40;100668.06;4956338;28;1587;-58
2022/07/08 07:35:19;;;;;;;;;;;;;;;16.70;56.48;100655.44;4952222;28;1987;-57
2022/07/08 07:37:44;;;;;;;;;;;;;;;16.64;56.42;100670.28;4967576;28;1248;-55
2022/07/08 07:40:10;;;;;;;;;;;;;;;16.69;56.52;100663.94;4974530;28;1325;-59
2022/07/08 07:42:35;;;;;;;;;;;;;;;16.62;56.73;100664.25;4959988;28;1010;-57
2022/07/08 07:45:03;;;;;;;;;;;;;;;16.62;56.83;100658.75;4957767;29;1041;-55
2022/07/08 07:47:29;;;;;;;;;;;;;;;16.64;56.49;100666.72;4956061;28;1256;-56
2022/07/08 07:49:54;;;;;;;;;;;;;;;16.62;56.60;100660.66;4952236;28;1083;-55
2022/07/08 07:52:20;;;;;;;;;;;;;;;16.64;56.60;100653.81;4966099;28;1144;-59
2022/07/08 07:54:45;;;;;;;;;;;;;;;16.67;56.47;100666.97;4961810;28;1617;-59
2022/07/08 07:57:11;;;;;;;;;;;;;;;16.60;56.47;100660.94;4965879;28;1911;-57
2022/07/08 07:59:36;;;;;;;;;;;;;;;16.62;56.56;100658.75;4967039;28;1258;-60
2022/07/08 08:02:02;;;;;;;;;;;;;;;16.60;56.64;100661.75;4969724;28;1307;-62
2022/07/08 08:04:27;;;;;;;;;;;;;;;16.59;56.75;100660.13;4960554;28;1255;-58
2022/07/08 08:06:53;;;;;;;;;;;;;;;16.57;56.41;100656.00;4952821;28;1030;-57
2022/07/08 08:09:18;;;;;;;;;;;;;;;16.56;56.76;100662.59;4958908;28;1082;-58
2022/07/08 08:11:43;;;;;;;;;;;;;;;16.57;56.49;100658.75;4963231;28;1016;-57
2022/07/08 08:14:09;;;;;;;;;;;;;;;16.58;56.42;100657.66;4958280;28;1157;-56
2022/07/08 08:16:34;;;;;;;;;;;;;;;16.56;56.60;100662.59;4958387;29;1910;-59
2022/07/08 08:19:00;;;;;;;;;;;;;;;16.52;56.67;100661.50;4940733;29;1379;-60
2022/07/08 08:21:25;;;;;;;;;;;;;;;16.51;56.66;100657.09;4958253;28;1066;-58
2022/07/08 08:23:50;;;;;;;;;;;;;;;16.56;56.77;100662.59;4946831;28;1030;-57
2022/07/08 08:26:16;;;;;;;;;;;;;;;16.52;56.91;100664.25;4969529;28;1189;-58
2022/07/08 08:28:42;;;;;;;;;;;;;;;16.54;56.87;100662.06;4962286;28;1102;-62
2022/07/08 08:31:07;;;;;;;;;;;;;;;16.55;56.59;100664.53;4956745;28;1263;-64
2022/07/08 08:33:33;;;;;;;;;;;;;;;16.53;56.58;100658.47;4953361;28;959;-63
2022/07/08 08:35:59;;;;;;;;;;;;;;;16.52;56.72;100661.50;4961422;28;1903;-58
2022/07/08 08:38:24;;;;;;;;;;;;;;;16.48;56.94;100654.91;4958218;28;1268;-57
2022/07/08 08:40:50;;;;;;;;;;;;;;;16.47;56.95;100662.34;4959580;28;1047;-59
2022/07/08 08:43:15;;;;;;;;;;;;;;;16.47;56.71;100653.28;4950247;28;1258;-65
2022/07/08 08:45:40;;;;;;;;;;;;;;;16.49;56.92;100653.81;4957441;28;1150;-60
2022/07/08 08:48:06;;;;;;;;;;;;;;;16.46;57.01;100651.63;4954632;28;1064;-57
2022/07/08 08:53:16;;;;;;;;;;;;;;;16.49;56.89;100651.06;4950491;28;1415;-57
2022/07/08 08:55:43;;;;;;;;;;;;;;;16.48;56.95;100646.69;4956261;28;1981;-57
2022/07/08 08:58:08;;;;;;;;;;;;;;;16.45;56.99;100644.50;4941373;29;1237;-57
2022/07/08 09:00:34;;;;;;;;;;;;;;;16.45;57.12;100639.81;4960916;28;1161;-58
2022/07/08 09:02:59;;;;;;;;;;;;;;;16.45;56.91;100639.00;4959196;28;1144;-58
2022/07/08 09:05:25;;;;;;;;;;;;;;;16.45;57.18;100636.25;4972448;28;1189;-57
2022/07/08 09:07:51;;;;;;;;;;;;;;;16.42;57.01;100624.75;4969274;28;2507;-57
2022/07/08 09:10:16;;;;;;;;;;;;;;;16.48;57.01;100632.97;4965089;28;1177;-57
2022/07/08 09:13:02;;;;;;;;;;;;;;;16.46;56.99;100616.75;4967137;28;1074;-57
2022/07/08 09:15:31;;;;;;;;;;;;;;;16.49;57.17;100618.13;4956736;28;1914;-57
2022/07/08 09:17:57;;;;;;;;;;;;;;;16.44;57.07;100618.97;4959450;28;1186;-58
2022/07/08 09:20:23;;;;;;;;;;;;;;;16.46;57.39;100615.94;4949340;28;1267;-57
2022/07/08 09:22:48;;;;;;;;;;;;;;;16.45;57.19;100609.63;4973151;28;1145;-57
2022/07/08 09:25:14;;;;;;;;;;;;;;;16.49;57.09;100607.16;4963005;28;1232;-57
2022/07/08 09:27:40;;;;;;;;;;;;;;;16.46;57.01;100599.50;4962747;28;1133;-57
2022/07/08 09:30:05;;;;;;;;;;;;;;;16.47;57.07;100601.16;4960999;29;1014;-58
2022/07/08 09:32:31;;;;;;;;;;;;;;;16.47;57.35;100598.41;4944314;28;1133;-57
2022/07/08 09:34:56;;;;;;;;;;;;;;;16.48;57.20;100595.38;4961165;28;1046;-57
2022/07/08 09:37:22;;;;;;;;;;;;;;;16.49;57.26;100591.50;4956771;29;2452;-58
2022/07/08 09:39:47;;;;;;;;;;;;;;;16.45;57.23;100587.66;4960874;28;1047;-57
2022/07/08 09:42:14;;;;;;;;;;;;;;;16.47;57.33;100590.97;4960130;29;975;-57
2022/07/08 09:44:39;;;;;;;;;;;;;;;16.47;57.29;100595.66;4957628;28;1101;-58
2022/07/08 09:47:11;;;;;;;;;;;;;;;16.46;57.41;100594.00;4959947;28;1137;-57
2022/07/08 09:49:38;;;;;;;;;;;;;;;16.48;57.06;100589.88;4959838;29;1050;-57
2022/07/08 09:52:04;;;;;;;;;;;;;;;16.45;57.19;100587.66;4965553;28;987;-57
2022/07/08 09:54:30;;;;;;;;;;;;;;;16.43;57.34;100581.66;4960344;28;1452;-58
2022/07/08 09:56:58;;;;;;;;;;;;;;;16.46;57.40;100589.31;4960381;28;1959;-58
2022/07/08 09:59:24;;;;;;;;;;;;;;;16.43;57.22;100579.72;4960230;28;1062;-57
2022/07/08 10:01:51;;;;;;;;;;;;;;;16.42;57.33;100582.75;4960909;28;1085;-57
2022/07/08 10:04:16;;;;;;;;;;;;;;;16.46;57.30;100577.53;4942901;29;1098;-57
2022/07/08 10:06:42;;;;;;;;;;;;;;;16.46;57.27;100570.09;4960128;28;1114;-57
2022/07/08 10:09:07;;;;;;;;;;;;;;;16.46;57.26;100577.53;4959434;28;1289;-57
2022/07/08 10:11:33;;;;;;;;;;;;;;;16.45;57.44;100575.88;4961440;28;1503;-57
2022/07/08 10:13:58;;;;;;;;;;;;;;;16.46;57.54;100577.53;4959955;28;1396;-57
2022/07/08 10:16:23;;;;;;;;;;;;;;;16.41;57.23;100570.09;4936213;28;1912;-57
2022/07/08 10:18:49;;;;;;;;;;;;;;;16.51;57.15;100572.84;4955661;29;1026;-57
2022/07/08 10:21:17;;;;;;;;;;;;;;;16.54;57.08;100588.75;4943277;29;1730;-57
2022/07/08 10:23:42;;;;;;;;;;;;;;;16.52;57.46;100579.16;4945683;28;1223;-59
2022/07/08 10:26:07;;;;;;;;;;;;;;;16.50;57.50;100584.94;4969651;28;1327;-62
2022/07/08 10:28:42;;;;;;;;;;;;;;;16.49;57.62;100582.47;4949237;28;1059;-60
2022/07/08 10:31:23;;;;;;;;;;;;;;;16.48;57.52;100572.56;4959760;29;928;-60
2022/07/08 10:33:49;;;;;;;;;;;;;;;16.51;57.42;100585.72;4959560;28;1050;-61
2022/07/08 10:36:17;;;;;;;;;;;;;;;16.48;57.66;100578.06;4959609;28;1894;-60
2022/07/08 10:38:43;;;;;;;;;;;;;;;16.47;57.43;100587.41;4959987;28;987;-61
2022/07/08 10:41:09;;;;;;;;;;;;;;;16.50;57.52;100584.94;4959555;29;999;-64
2022/07/08 10:43:35;;;;;;;;;;;;;;;16.45;57.44;100573.94;4959495;29;881;-60
2022/07/08 10:46:02;;;;;;;;;;;;;;;16.50;57.52;100584.13;4959478;28;1173;-60
2022/07/08 10:48:40;;;;;;;;;;;;;;;16.51;57.42;100580.25;4959529;28;1057;-63
2022/07/08 10:51:06;;;;;;;;;;;;;;;16.50;57.21;100581.38;4959622;28;981;-63
2022/07/08 10:53:48;;;;;;;;;;;;;;;16.47;57.43;100573.69;4959502;29;971;-65
2022/07/08 10:56:33;;;;;;;;;;;;;;;16.48;57.33;100575.31;4961488;28;1968;-65
2022/07/08 10:59:14;;;;;;;;;;;;;;;16.45;57.80;100571.19;4951465;29;1268;-66
2022/07/08 11:01:40;;;;;;;;;;;;;;;16.46;57.80;100572.03;4957697;29;1011;-65
2022/07/08 11:04:25;;;;;;;;;;;;;;;16.45;57.78;100564.91;4958490;28;1018;-64
2022/07/08 11:06:51;;;;;;;;;;;;;;;16.39;57.77;100558.59;4952578;28;1184;-61
2022/07/08 11:09:17;;;;;;;;;;;;;;;16.44;57.54;100555.84;4955887;29;1224;-64
2022/07/08 11:11:46;;;;;;;;;;;;;;;16.43;57.62;100552.28;4958330;28;987;-67
2022/07/08 11:14:14;;;;;;;;;;;;;;;16.48;57.61;100553.34;4958783;28;1210;-64
2022/07/08 11:16:40;;;;;;;;;;;;;;;16.42;57.57;100550.66;4958662;29;1898;-63
2022/07/08 11:19:06;;;;;;;;;;;;;;;16.49;57.73;100553.06;4958038;29;1030;-64
2022/07/08 11:21:31;;;;;;;;;;;;;;;16.48;57.56;100558.84;4958873;28;1181;-66
2022/07/08 11:23:57;;;;;;;;;;;;;;;16.46;57.44;100558.31;4958520;28;1049;-65
2022/07/08 11:26:22;;;;;;;;;;;;;;;16.43;57.80;100556.94;4957720;28;1106;-65
2022/07/08 11:28:47;;;;;;;;;;;;;;;16.47;57.63;100541.56;4959551;28;991;-64
2022/07/08 11:31:23;;;;;;;;;;;;;;;16.48;57.33;100545.13;4959578;28;1106;-63
2022/07/08 11:33:49;;;;;;;;;;;;;;;16.50;57.68;100545.69;4952269;28;1073;-64
2022/07/08 11:36:15;;;;;;;;;;;;;;;16.53;57.31;100545.13;4958767;28;1976;-63
2022/07/08 11:38:40;;;;;;;;;;;;;;;16.50;57.37;100546.50;4958743;29;984;-67
2022/07/08 11:41:05;;;;;;;;;;;;;;;16.52;57.40;100544.31;4962263;28;1185;-61
2022/07/08 11:43:31;;;;;;;;;;;;;;;16.56;57.35;100534.41;4942402;29;972;-64
2022/07/08 11:45:56;;;;;;;;;;;;;;;16.60;57.60;100545.66;4958498;28;1038;-67
2022/07/08 11:48:22;;;;;;;;;;;;;;;16.59;57.46;100538.50;4958052;28;1410;-64
2022/07/08 11:50:48;;;;;;;;;;;;;;;16.58;57.52;100534.94;4958211;29;1078;-66
2022/07/08 11:53:20;;;;;;;;;;;;;;;16.62;57.58;100543.47;4957615;28;1195;-64
2022/07/08 11:55:46;;;;;;;;;;;;;;;16.60;57.65;100538.22;4959730;28;1968;-66
2022/07/08 11:58:19;;;;;;;;;;;;;;;16.57;57.59;100521.50;4957519;28;1302;-64
2022/07/08 12:00:44;;;;;;;;;;;;;;;16.58;57.47;100517.66;4957781;28;1512;-64
2022/07/08 12:03:10;;;;;;;;;;;;;;;16.57;57.56;100524.25;4957766;28;1234;-67
2022/07/08 12:05:36;;;;;;;;;;;;;;;16.63;57.50;100517.63;4956858;28;1381;-63
2022/07/08 12:08:08;;;;;;;;;;;;;;;16.57;57.46;100514.09;4956931;28;1471;-69
2022/07/08 12:10:34;;;;;;;;;;;;;;;16.58;57.55;100509.44;4956583;28;1421;-62
2022/07/08 12:12:59;;;;;;;;;;;;;;;16.58;57.58;100509.44;4957930;28;1405;-68
2022/07/08 12:15:32;;;;;;;;;;;;;;;16.61;57.70;100508.88;4956981;28;1980;-63
2022/07/08 12:17:57;;;;;;;;;;;;;;;16.61;57.42;100514.34;4941779;28;1543;-65
2022/07/08 12:20:32;;;;;;;;;;;;;;;16.62;57.47;100521.50;4962401;28;1195;-65
2022/07/08 12:22:58;;;;;;;;;;;;;;;16.63;57.57;100514.88;4961471;28;1093;-61
2022/07/08 12:25:23;;;;;;;;;;;;;;;16.64;57.79;100512.97;4961142;28;1019;-64
2022/07/08 12:28:01;;;;;;;;;;;;;;;16.85;58.38;100503.53;4957849;29;1066;-63
2022/07/08 12:30:28;;;;;;;;;;;;;;;16.93;58.90;100511.22;4957955;28;1085;-64
2022/07/08 12:32:57;;;;;;;;;;;;;;;16.96;59.03;100501.59;4970832;28;1049;-69
2022/07/08 12:35:29;;;;;;;;;;;;;;;16.89;59.00;100503.84;4969554;28;1902;-59
2022/07/08 12:38:07;;;;;;;;;;;;;;;16.84;58.83;100503.81;4942582;29;1106;-63
2022/07/08 12:40:36;;;;;;;;;;;;;;;16.84;58.63;100499.13;4958854;29;1129;-62
2022/07/08 12:43:02;;;;;;;;;;;;;;;16.83;58.56;100497.53;4960669;28;1201;-58
2022/07/08 12:45:30;;;;;;;;;;;;;;;16.80;58.29;100505.50;4961638;28;971;-66
2022/07/08 12:47:56;;;;;;;;;;;;;;;16.98;58.34;100495.81;4960318;29;1082;-67